sensor_id;sensor_type;location;lat;lon;timestamp;P1;durP1;ratioP1;P2;durP2;ratioP2
54871;SDS011;43914;57.680;11.982;2024-01-30T00:01:51;41.60;;;11.60;;
54871;SDS011;43914;57.680;11.982;2024-01-30T00:04:17;49.20;;;14.10;;
54871;SDS011;43914;57.680;11.982;2024-01-30T00:06:43;40.30;;;12.80;;
54871;SDS011;43914;57.680;11.982;2024-01-30T00:09:09;35.30;;;12.60;;
54871;SDS011;43914;57.680;11.982;2024-01-30T00:11:35;39.30;;;12.70;;
54871;SDS011;43914;57.680;11.982;2024-01-30T00:14:02;44.40;;;14.20;;
54871;SDS011;43914;57.680;11.982;2024-01-30T00:16:28;41.10;;;13.50;;
54871;SDS011;43914;57.680;11.982;2024-01-30T00:18:54;43.20;;;14.00;;
54871;SDS011;43914;57.680;11.982;2024-01-30T00:21:21;42.40;;;13.80;;
54871;SDS011;43914;57.680;11.982;2024-01-30T00:23:47;41.10;;;12.90;;
54871;SDS011;43914;57.680;11.982;2024-01-30T00:26:16;31.00;;;11.40;;
54871;SDS011;43914;57.680;11.982;2024-01-30T00:28:41;40.70;;;13.00;;
54871;SDS011;43914;57.680;11.982;2024-01-30T00:31:10;39.30;;;13.10;;
54871;SDS011;43914;57.680;11.982;2024-01-30T00:33:38;34.20;;;12.20;;
54871;SDS011;43914;57.680;11.982;2024-01-30T00:36:07;30.00;;;12.10;;
54871;SDS011;43914;57.680;11.982;2024-01-30T00:38:34;38.00;;;12.40;;
54871;SDS011;43914;57.680;11.982;2024-01-30T00:41:00;35.50;;;12.00;;
54871;SDS011;43914;57.680;11.982;2024-01-30T00:43:27;31.00;;;11.40;;
54871;SDS011;43914;57.680;11.982;2024-01-30T00:45:53;35.00;;;12.50;;
54871;SDS011;43914;57.680;11.982;2024-01-30T00:48:19;34.30;;;12.00;;
54871;SDS011;43914;57.680;11.982;2024-01-30T00:50:45;34.10;;;12.10;;
54871;SDS011;43914;57.680;11.982;2024-01-30T00:53:11;32.20;;;11.10;;
54871;SDS011;43914;57.680;11.982;2024-01-30T00:55:36;30.70;;;11.90;;
54871;SDS011;43914;57.680;11.982;2024-01-30T00:58:02;34.70;;;12.60;;
54871;SDS011;43914;57.680;11.982;2024-01-30T01:00:28;29.70;;;11.40;;
54871;SDS011;43914;57.680;11.982;2024-01-30T01:03:03;31.10;;;12.10;;
54871;SDS011;43914;57.680;11.982;2024-01-30T01:05:28;29.60;;;11.60;;
54871;SDS011;43914;57.680;11.982;2024-01-30T01:07:54;30.60;;;11.60;;
54871;SDS011;43914;57.680;11.982;2024-01-30T01:10:20;26.20;;;10.20;;
54871;SDS011;43914;57.680;11.982;2024-01-30T01:12:45;28.20;;;11.50;;
54871;SDS011;43914;57.680;11.982;2024-01-30T01:15:11;29.90;;;11.10;;
54871;SDS011;43914;57.680;11.982;2024-01-30T01:17:37;25.80;;;9.80;;
54871;SDS011;43914;57.680;11.982;2024-01-30T01:20:03;30.00;;;11.60;;
54871;SDS011;43914;57.680;11.982;2024-01-30T01:22:31;26.30;;;10.10;;
54871;SDS011;43914;57.680;11.982;2024-01-30T01:24:57;24.20;;;10.30;;
54871;SDS011;43914;57.680;11.982;2024-01-30T01:27:24;27.80;;;10.50;;
54871;SDS011;43914;57.680;11.982;2024-01-30T01:29:50;26.00;;;10.30;;
54871;SDS011;43914;57.680;11.982;2024-01-30T01:32:16;27.00;;;11.90;;
54871;SDS011;43914;57.680;11.982;2024-01-30T01:34:41;32.90;;;11.70;;
54871;SDS011;43914;57.680;11.982;2024-01-30T01:37:07;27.50;;;9.70;;
54871;SDS011;43914;57.680;11.982;2024-01-30T01:39:33;26.50;;;10.70;;
54871;SDS011;43914;57.680;11.982;2024-01-30T01:41:58;27.50;;;10.60;;
54871;SDS011;43914;57.680;11.982;2024-01-30T01:44:24;27.30;;;10.30;;
54871;SDS011;43914;57.680;11.982;2024-01-30T01:46:49;26.30;;;11.10;;
54871;SDS011;43914;57.680;11.982;2024-01-30T01:49:16;24.00;;;9.50;;
54871;SDS011;43914;57.680;11.982;2024-01-30T01:51:42;27.60;;;11.50;;
54871;SDS011;43914;57.680;11.982;2024-01-30T01:54:10;26.90;;;10.50;;
54871;SDS011;43914;57.680;11.982;2024-01-30T01:56:36;31.60;;;11.10;;
54871;SDS011;43914;57.680;11.982;2024-01-30T01:59:08;28.50;;;10.30;;
54871;SDS011;43914;57.680;11.982;2024-01-30T02:01:35;25.80;;;10.30;;
54871;SDS011;43914;57.680;11.982;2024-01-30T02:04:02;23.20;;;9.80;;
54871;SDS011;43914;57.680;11.982;2024-01-30T02:06:27;24.80;;;9.60;;
54871;SDS011;43914;57.680;11.982;2024-01-30T02:08:53;25.80;;;10.40;;
54871;SDS011;43914;57.680;11.982;2024-01-30T02:11:19;21.80;;;8.90;;
54871;SDS011;43914;57.680;11.982;2024-01-30T02:13:45;22.30;;;8.60;;
54871;SDS011;43914;57.680;11.982;2024-01-30T02:16:10;22.30;;;9.20;;
54871;SDS011;43914;57.680;11.982;2024-01-30T02:18:36;22.20;;;9.40;;
54871;SDS011;43914;57.680;11.982;2024-01-30T02:21:07;20.20;;;8.70;;
54871;SDS011;43914;57.680;11.982;2024-01-30T02:23:32;21.60;;;9.10;;
54871;SDS011;43914;57.680;11.982;2024-01-30T02:25:59;18.20;;;7.70;;
54871;SDS011;43914;57.680;11.982;2024-01-30T02:28:24;20.70;;;7.50;;
54871;SDS011;43914;57.680;11.982;2024-01-30T02:30:50;20.90;;;9.30;;
54871;SDS011;43914;57.680;11.982;2024-01-30T02:33:15;22.20;;;9.10;;
54871;SDS011;43914;57.680;11.982;2024-01-30T02:35:41;21.30;;;9.00;;
54871;SDS011;43914;57.680;11.982;2024-01-30T02:38:06;21.40;;;9.00;;
54871;SDS011;43914;57.680;11.982;2024-01-30T02:40:32;23.90;;;9.70;;
54871;SDS011;43914;57.680;11.982;2024-01-30T02:42:58;21.00;;;9.00;;
54871;SDS011;43914;57.680;11.982;2024-01-30T02:45:25;23.90;;;9.80;;
54871;SDS011;43914;57.680;11.982;2024-01-30T02:47:50;17.80;;;7.80;;
54871;SDS011;43914;57.680;11.982;2024-01-30T02:50:16;19.10;;;7.90;;
54871;SDS011;43914;57.680;11.982;2024-01-30T02:52:42;20.90;;;8.90;;
54871;SDS011;43914;57.680;11.982;2024-01-30T02:55:09;18.70;;;8.40;;
54871;SDS011;43914;57.680;11.982;2024-01-30T02:57:36;21.70;;;9.10;;
54871;SDS011;43914;57.680;11.982;2024-01-30T03:00:01;20.20;;;8.80;;
54871;SDS011;43914;57.680;11.982;2024-01-30T03:02:28;20.10;;;8.90;;
54871;SDS011;43914;57.680;11.982;2024-01-30T03:04:54;21.20;;;8.60;;
54871;SDS011;43914;57.680;11.982;2024-01-30T03:07:19;17.90;;;7.60;;
54871;SDS011;43914;57.680;11.982;2024-01-30T03:09:45;20.60;;;8.70;;
54871;SDS011;43914;57.680;11.982;2024-01-30T03:12:10;21.30;;;8.70;;
54871;SDS011;43914;57.680;11.982;2024-01-30T03:14:36;22.60;;;9.00;;
54871;SDS011;43914;57.680;11.982;2024-01-30T03:17:02;20.80;;;8.90;;
54871;SDS011;43914;57.680;11.982;2024-01-30T03:19:28;19.80;;;8.20;;
54871;SDS011;43914;57.680;11.982;2024-01-30T03:21:53;18.10;;;8.00;;
54871;SDS011;43914;57.680;11.982;2024-01-30T03:24:19;19.20;;;8.80;;
54871;SDS011;43914;57.680;11.982;2024-01-30T03:26:44;16.70;;;7.70;;
54871;SDS011;43914;57.680;11.982;2024-01-30T03:29:10;21.40;;;9.00;;
54871;SDS011;43914;57.680;11.982;2024-01-30T03:31:35;22.40;;;8.80;;
54871;SDS011;43914;57.680;11.982;2024-01-30T03:34:01;17.80;;;8.00;;
54871;SDS011;43914;57.680;11.982;2024-01-30T03:36:27;20.80;;;9.20;;
54871;SDS011;43914;57.680;11.982;2024-01-30T03:38:53;17.70;;;8.20;;
54871;SDS011;43914;57.680;11.982;2024-01-30T03:41:18;19.20;;;8.30;;
54871;SDS011;43914;57.680;11.982;2024-01-30T03:43:44;20.00;;;8.90;;
54871;SDS011;43914;57.680;11.982;2024-01-30T03:46:11;17.50;;;7.90;;
54871;SDS011;43914;57.680;11.982;2024-01-30T03:48:37;20.70;;;8.60;;
54871;SDS011;43914;57.680;11.982;2024-01-30T03:51:02;21.40;;;8.90;;
54871;SDS011;43914;57.680;11.982;2024-01-30T03:53:28;18.30;;;8.70;;
54871;SDS011;43914;57.680;11.982;2024-01-30T03:55:53;19.30;;;8.50;;
54871;SDS011;43914;57.680;11.982;2024-01-30T03:58:19;17.20;;;8.60;;
54871;SDS011;43914;57.680;11.982;2024-01-30T04:00:44;18.20;;;9.00;;
54871;SDS011;43914;57.680;11.982;2024-01-30T04:03:10;20.40;;;9.00;;
54871;SDS011;43914;57.680;11.982;2024-01-30T04:05:35;23.00;;;10.10;;
54871;SDS011;43914;57.680;11.982;2024-01-30T04:08:01;22.10;;;10.00;;
54871;SDS011;43914;57.680;11.982;2024-01-30T04:10:26;20.90;;;8.60;;
54871;SDS011;43914;57.680;11.982;2024-01-30T04:12:52;22.40;;;9.60;;
54871;SDS011;43914;57.680;11.982;2024-01-30T04:15:19;20.90;;;9.10;;
54871;SDS011;43914;57.680;11.982;2024-01-30T04:17:44;18.10;;;7.80;;
54871;SDS011;43914;57.680;11.982;2024-01-30T04:20:13;24.80;;;10.40;;
54871;SDS011;43914;57.680;11.982;2024-01-30T04:22:41;22.20;;;9.70;;
54871;SDS011;43914;57.680;11.982;2024-01-30T04:25:08;17.80;;;8.40;;
54871;SDS011;43914;57.680;11.982;2024-01-30T04:27:34;22.90;;;10.80;;
54871;SDS011;43914;57.680;11.982;2024-01-30T04:29:59;22.80;;;8.90;;
54871;SDS011;43914;57.680;11.982;2024-01-30T04:32:24;23.50;;;10.40;;
54871;SDS011;43914;57.680;11.982;2024-01-30T04:34:50;20.50;;;9.30;;
54871;SDS011;43914;57.680;11.982;2024-01-30T04:37:15;27.20;;;10.30;;
54871;SDS011;43914;57.680;11.982;2024-01-30T04:39:41;22.50;;;9.10;;
54871;SDS011;43914;57.680;11.982;2024-01-30T04:42:07;25.90;;;12.00;;
54871;SDS011;43914;57.680;11.982;2024-01-30T04:44:32;24.60;;;10.10;;
54871;SDS011;43914;57.680;11.982;2024-01-30T04:46:58;22.90;;;9.90;;
54871;SDS011;43914;57.680;11.982;2024-01-30T04:49:26;28.70;;;10.90;;
54871;SDS011;43914;57.680;11.982;2024-01-30T04:51:52;26.20;;;10.00;;
54871;SDS011;43914;57.680;11.982;2024-01-30T04:54:18;30.50;;;10.90;;
54871;SDS011;43914;57.680;11.982;2024-01-30T04:56:43;24.20;;;10.30;;
54871;SDS011;43914;57.680;11.982;2024-01-30T04:59:09;19.50;;;8.30;;
54871;SDS011;43914;57.680;11.982;2024-01-30T05:01:34;24.50;;;9.30;;
54871;SDS011;43914;57.680;11.982;2024-01-30T05:04:00;22.50;;;9.50;;
54871;SDS011;43914;57.680;11.982;2024-01-30T05:06:26;17.90;;;8.30;;
54871;SDS011;43914;57.680;11.982;2024-01-30T05:08:52;21.90;;;9.20;;
54871;SDS011;43914;57.680;11.982;2024-01-30T05:11:18;19.20;;;7.10;;
54871;SDS011;43914;57.680;11.982;2024-01-30T05:13:44;19.90;;;7.60;;
54871;SDS011;43914;57.680;11.982;2024-01-30T05:16:09;16.80;;;7.10;;
54871;SDS011;43914;57.680;11.982;2024-01-30T05:18:35;19.40;;;8.30;;
54871;SDS011;43914;57.680;11.982;2024-01-30T05:21:01;17.80;;;8.00;;
54871;SDS011;43914;57.680;11.982;2024-01-30T05:23:27;13.40;;;6.80;;
54871;SDS011;43914;57.680;11.982;2024-01-30T05:25:53;15.70;;;7.50;;
54871;SDS011;43914;57.680;11.982;2024-01-30T05:28:18;17.40;;;7.80;;
54871;SDS011;43914;57.680;11.982;2024-01-30T05:30:44;14.60;;;6.80;;
54871;SDS011;43914;57.680;11.982;2024-01-30T05:33:09;14.70;;;7.30;;
54871;SDS011;43914;57.680;11.982;2024-01-30T05:35:37;15.20;;;7.60;;
54871;SDS011;43914;57.680;11.982;2024-01-30T05:38:03;13.70;;;6.90;;
54871;SDS011;43914;57.680;11.982;2024-01-30T05:40:28;16.60;;;7.00;;
54871;SDS011;43914;57.680;11.982;2024-01-30T05:42:54;14.10;;;6.40;;
54871;SDS011;43914;57.680;11.982;2024-01-30T05:45:19;15.70;;;7.10;;
54871;SDS011;43914;57.680;11.982;2024-01-30T05:47:45;14.00;;;6.40;;
54871;SDS011;43914;57.680;11.982;2024-01-30T05:50:10;14.90;;;7.00;;
54871;SDS011;43914;57.680;11.982;2024-01-30T05:52:36;12.80;;;6.00;;
54871;SDS011;43914;57.680;11.982;2024-01-30T05:55:02;18.10;;;7.40;;
54871;SDS011;43914;57.680;11.982;2024-01-30T05:57:28;16.40;;;7.30;;
54871;SDS011;43914;57.680;11.982;2024-01-30T05:59:53;13.40;;;6.20;;
54871;SDS011;43914;57.680;11.982;2024-01-30T06:02:19;14.40;;;6.50;;
54871;SDS011;43914;57.680;11.982;2024-01-30T06:04:44;15.90;;;7.00;;
54871;SDS011;43914;57.680;11.982;2024-01-30T06:07:10;15.80;;;7.50;;
54871;SDS011;43914;57.680;11.982;2024-01-30T06:09:35;15.20;;;7.30;;
54871;SDS011;43914;57.680;11.982;2024-01-30T06:12:01;14.20;;;6.60;;
54871;SDS011;43914;57.680;11.982;2024-01-30T06:14:26;15.70;;;6.80;;
54871;SDS011;43914;57.680;11.982;2024-01-30T06:16:52;15.30;;;7.10;;
54871;SDS011;43914;57.680;11.982;2024-01-30T06:19:17;15.80;;;7.30;;
54871;SDS011;43914;57.680;11.982;2024-01-30T06:21:43;14.60;;;6.50;;
54871;SDS011;43914;57.680;11.982;2024-01-30T06:24:08;15.40;;;6.60;;
54871;SDS011;43914;57.680;11.982;2024-01-30T06:26:34;21.70;;;8.50;;
54871;SDS011;43914;57.680;11.982;2024-01-30T06:28:59;16.80;;;7.90;;
54871;SDS011;43914;57.680;11.982;2024-01-30T06:31:25;21.60;;;8.50;;
54871;SDS011;43914;57.680;11.982;2024-01-30T06:33:50;22.70;;;8.70;;
54871;SDS011;43914;57.680;11.982;2024-01-30T06:36:16;21.70;;;8.80;;
54871;SDS011;43914;57.680;11.982;2024-01-30T06:38:41;17.80;;;7.60;;
54871;SDS011;43914;57.680;11.982;2024-01-30T06:41:07;23.90;;;9.00;;
54871;SDS011;43914;57.680;11.982;2024-01-30T06:43:32;17.10;;;7.30;;
54871;SDS011;43914;57.680;11.982;2024-01-30T06:45:58;19.00;;;8.50;;
54871;SDS011;43914;57.680;11.982;2024-01-30T06:48:24;27.60;;;8.80;;
54871;SDS011;43914;57.680;11.982;2024-01-30T06:50:52;36.70;;;9.40;;
54871;SDS011;43914;57.680;11.982;2024-01-30T06:53:19;36.20;;;9.70;;
54871;SDS011;43914;57.680;11.982;2024-01-30T06:55:44;22.20;;;8.00;;
54871;SDS011;43914;57.680;11.982;2024-01-30T06:58:10;16.90;;;7.20;;
54871;SDS011;43914;57.680;11.982;2024-01-30T07:00:36;28.90;;;9.10;;
54871;SDS011;43914;57.680;11.982;2024-01-30T07:03:02;21.30;;;8.50;;
54871;SDS011;43914;57.680;11.982;2024-01-30T07:05:31;15.80;;;6.70;;
54871;SDS011;43914;57.680;11.982;2024-01-30T07:07:57;27.20;;;8.70;;
54871;SDS011;43914;57.680;11.982;2024-01-30T07:10:22;18.70;;;8.30;;
54871;SDS011;43914;57.680;11.982;2024-01-30T07:12:48;19.90;;;8.30;;
54871;SDS011;43914;57.680;11.982;2024-01-30T07:15:13;21.70;;;7.70;;
54871;SDS011;43914;57.680;11.982;2024-01-30T07:17:42;16.30;;;7.00;;
54871;SDS011;43914;57.680;11.982;2024-01-30T07:20:07;18.10;;;7.60;;
54871;SDS011;43914;57.680;11.982;2024-01-30T07:22:34;16.00;;;6.90;;
54871;SDS011;43914;57.680;11.982;2024-01-30T07:25:00;14.20;;;6.50;;
54871;SDS011;43914;57.680;11.982;2024-01-30T07:27:26;20.70;;;7.40;;
54871;SDS011;43914;57.680;11.982;2024-01-30T07:29:51;20.20;;;8.10;;
54871;SDS011;43914;57.680;11.982;2024-01-30T07:32:16;20.10;;;8.40;;
54871;SDS011;43914;57.680;11.982;2024-01-30T07:34:43;21.10;;;9.10;;
54871;SDS011;43914;57.680;11.982;2024-01-30T07:37:09;23.50;;;8.10;;
54871;SDS011;43914;57.680;11.982;2024-01-30T07:39:35;19.70;;;8.80;;
54871;SDS011;43914;57.680;11.982;2024-01-30T07:42:01;20.60;;;8.40;;
54871;SDS011;43914;57.680;11.982;2024-01-30T07:44:26;22.90;;;8.80;;
54871;SDS011;43914;57.680;11.982;2024-01-30T07:46:52;18.20;;;8.60;;
54871;SDS011;43914;57.680;11.982;2024-01-30T07:49:17;18.10;;;7.70;;
54871;SDS011;43914;57.680;11.982;2024-01-30T07:51:43;22.30;;;9.20;;
54871;SDS011;43914;57.680;11.982;2024-01-30T07:54:10;23.30;;;9.40;;
54871;SDS011;43914;57.680;11.982;2024-01-30T07:56:35;20.40;;;9.20;;
54871;SDS011;43914;57.680;11.982;2024-01-30T07:59:01;19.80;;;8.30;;
54871;SDS011;43914;57.680;11.982;2024-01-30T08:01:26;19.60;;;8.00;;
54871;SDS011;43914;57.680;11.982;2024-01-30T08:03:52;18.30;;;7.30;;
54871;SDS011;43914;57.680;11.982;2024-01-30T08:06:18;17.80;;;7.70;;
54871;SDS011;43914;57.680;11.982;2024-01-30T08:08:43;14.00;;;6.00;;
54871;SDS011;43914;57.680;11.982;2024-01-30T08:11:09;15.20;;;6.70;;
54871;SDS011;43914;57.680;11.982;2024-01-30T08:13:34;19.70;;;7.90;;
54871;SDS011;43914;57.680;11.982;2024-01-30T08:16:00;14.70;;;6.90;;
54871;SDS011;43914;57.680;11.982;2024-01-30T08:18:25;16.10;;;6.80;;
54871;SDS011;43914;57.680;11.982;2024-01-30T08:20:51;17.20;;;6.60;;
54871;SDS011;43914;57.680;11.982;2024-01-30T08:23:17;16.80;;;7.00;;
54871;SDS011;43914;57.680;11.982;2024-01-30T08:25:42;19.40;;;6.90;;
54871;SDS011;43914;57.680;11.982;2024-01-30T08:28:07;18.00;;;7.40;;
54871;SDS011;43914;57.680;11.982;2024-01-30T08:30:33;17.00;;;7.40;;
54871;SDS011;43914;57.680;11.982;2024-01-30T08:32:59;19.60;;;8.10;;
54871;SDS011;43914;57.680;11.982;2024-01-30T08:35:24;19.00;;;8.70;;
54871;SDS011;43914;57.680;11.982;2024-01-30T08:37:50;18.30;;;7.70;;
54871;SDS011;43914;57.680;11.982;2024-01-30T08:40:15;17.00;;;7.80;;
54871;SDS011;43914;57.680;11.982;2024-01-30T08:42:41;19.70;;;8.00;;
54871;SDS011;43914;57.680;11.982;2024-01-30T08:45:06;18.80;;;8.00;;
54871;SDS011;43914;57.680;11.982;2024-01-30T08:47:32;16.60;;;7.40;;
54871;SDS011;43914;57.680;11.982;2024-01-30T08:49:58;18.70;;;8.30;;
54871;SDS011;43914;57.680;11.982;2024-01-30T08:52:24;21.40;;;9.00;;
54871;SDS011;43914;57.680;11.982;2024-01-30T08:54:49;18.70;;;8.80;;
54871;SDS011;43914;57.680;11.982;2024-01-30T08:57:15;17.70;;;7.60;;
54871;SDS011;43914;57.680;11.982;2024-01-30T08:59:40;17.70;;;7.90;;
54871;SDS011;43914;57.680;11.982;2024-01-30T09:02:06;15.80;;;7.60;;
54871;SDS011;43914;57.680;11.982;2024-01-30T09:04:31;17.10;;;8.70;;
54871;SDS011;43914;57.680;11.982;2024-01-30T09:06:57;18.40;;;6.70;;
54871;SDS011;43914;57.680;11.982;2024-01-30T09:09:22;21.00;;;9.50;;
54871;SDS011;43914;57.680;11.982;2024-01-30T09:11:48;20.90;;;9.30;;
54871;SDS011;43914;57.680;11.982;2024-01-30T09:14:13;19.70;;;9.70;;
54871;SDS011;43914;57.680;11.982;2024-01-30T09:16:39;18.50;;;8.50;;
54871;SDS011;43914;57.680;11.982;2024-01-30T09:19:04;21.20;;;9.50;;
54871;SDS011;43914;57.680;11.982;2024-01-30T09:21:30;25.20;;;10.10;;
54871;SDS011;43914;57.680;11.982;2024-01-30T09:24:01;19.80;;;9.50;;
54871;SDS011;43914;57.680;11.982;2024-01-30T09:26:29;25.60;;;11.20;;
54871;SDS011;43914;57.680;11.982;2024-01-30T09:28:54;27.30;;;10.70;;
54871;SDS011;43914;57.680;11.982;2024-01-30T09:31:20;21.00;;;9.00;;
54871;SDS011;43914;57.680;11.982;2024-01-30T09:33:45;26.60;;;10.40;;
54871;SDS011;43914;57.680;11.982;2024-01-30T09:36:13;26.90;;;10.90;;
54871;SDS011;43914;57.680;11.982;2024-01-30T09:38:41;28.00;;;9.90;;
54871;SDS011;43914;57.680;11.982;2024-01-30T09:41:08;26.40;;;10.60;;
54871;SDS011;43914;57.680;11.982;2024-01-30T09:43:36;21.80;;;8.50;;
54871;SDS011;43914;57.680;11.982;2024-01-30T09:46:03;21.60;;;9.50;;
54871;SDS011;43914;57.680;11.982;2024-01-30T09:48:30;24.60;;;10.00;;
54871;SDS011;43914;57.680;11.982;2024-01-30T09:50:57;19.50;;;9.40;;
54871;SDS011;43914;57.680;11.982;2024-01-30T09:53:23;25.60;;;10.50;;
54871;SDS011;43914;57.680;11.982;2024-01-30T09:55:50;24.00;;;10.80;;
54871;SDS011;43914;57.680;11.982;2024-01-30T09:58:16;25.60;;;10.00;;
54871;SDS011;43914;57.680;11.982;2024-01-30T10:00:42;25.20;;;10.00;;
54871;SDS011;43914;57.680;11.982;2024-01-30T10:03:08;22.20;;;9.00;;
54871;SDS011;43914;57.680;11.982;2024-01-30T10:05:35;24.20;;;8.80;;
54871;SDS011;43914;57.680;11.982;2024-01-30T10:08:07;21.00;;;8.80;;
54871;SDS011;43914;57.680;11.982;2024-01-30T10:10:34;18.20;;;7.80;;
54871;SDS011;43914;57.680;11.982;2024-01-30T10:13:00;21.80;;;7.90;;
54871;SDS011;43914;57.680;11.982;2024-01-30T10:15:26;16.70;;;7.10;;
54871;SDS011;43914;57.680;11.982;2024-01-30T10:17:53;16.50;;;7.20;;
54871;SDS011;43914;57.680;11.982;2024-01-30T10:20:19;22.40;;;9.00;;
54871;SDS011;43914;57.680;11.982;2024-01-30T10:22:46;18.50;;;7.10;;
54871;SDS011;43914;57.680;11.982;2024-01-30T10:25:12;19.30;;;7.60;;
54871;SDS011;43914;57.680;11.982;2024-01-30T10:27:39;18.60;;;8.00;;
54871;SDS011;43914;57.680;11.982;2024-01-30T10:30:05;19.30;;;8.30;;
54871;SDS011;43914;57.680;11.982;2024-01-30T10:32:31;17.10;;;7.20;;
54871;SDS011;43914;57.680;11.982;2024-01-30T10:34:56;21.70;;;7.50;;
54871;SDS011;43914;57.680;11.982;2024-01-30T10:37:22;19.10;;;8.30;;
54871;SDS011;43914;57.680;11.982;2024-01-30T10:39:50;20.20;;;7.90;;
54871;SDS011;43914;57.680;11.982;2024-01-30T10:42:19;26.90;;;7.90;;
54871;SDS011;43914;57.680;11.982;2024-01-30T10:47:29;19.80;;;7.00;;
54871;SDS011;43914;57.680;11.982;2024-01-30T10:49:55;17.80;;;7.80;;
54871;SDS011;43914;57.680;11.982;2024-01-30T10:52:24;18.30;;;7.80;;
54871;SDS011;43914;57.680;11.982;2024-01-30T10:54:52;22.20;;;8.00;;
54871;SDS011;43914;57.680;11.982;2024-01-30T10:57:19;27.50;;;8.70;;
54871;SDS011;43914;57.680;11.982;2024-01-30T10:59:48;22.00;;;8.30;;
54871;SDS011;43914;57.680;11.982;2024-01-30T11:02:15;28.60;;;9.00;;
54871;SDS011;43914;57.680;11.982;2024-01-30T11:04:41;29.40;;;9.10;;
54871;SDS011;43914;57.680;11.982;2024-01-30T11:07:16;24.10;;;8.80;;
54871;SDS011;43914;57.680;11.982;2024-01-30T11:10:16;34.70;;;8.30;;
54871;SDS011;43914;57.680;11.982;2024-01-30T11:12:40;26.40;;;8.70;;
54871;SDS011;43914;57.680;11.982;2024-01-30T11:15:08;43.10;;;9.10;;
54871;SDS011;43914;57.680;11.982;2024-01-30T11:20:15;51.20;;;9.10;;
54871;SDS011;43914;57.680;11.982;2024-01-30T11:22:51;36.30;;;8.10;;
54871;SDS011;43914;57.680;11.982;2024-01-30T11:25:21;44.60;;;9.40;;
54871;SDS011;43914;57.680;11.982;2024-01-30T11:27:52;41.70;;;8.10;;
54871;SDS011;43914;57.680;11.982;2024-01-30T11:35:56;38.50;;;9.10;;
54871;SDS011;43914;57.680;11.982;2024-01-30T11:38:25;39.70;;;9.70;;
54871;SDS011;43914;57.680;11.982;2024-01-30T11:40:52;47.60;;;9.60;;
54871;SDS011;43914;57.680;11.982;2024-01-30T11:43:19;40.20;;;9.20;;
54871;SDS011;43914;57.680;11.982;2024-01-30T11:45:45;39.50;;;9.00;;
54871;SDS011;43914;57.680;11.982;2024-01-30T11:48:11;31.90;;;9.50;;
54871;SDS011;43914;57.680;11.982;2024-01-30T11:50:38;45.20;;;10.50;;
54871;SDS011;43914;57.680;11.982;2024-01-30T11:53:05;42.00;;;9.50;;
54871;SDS011;43914;57.680;11.982;2024-01-30T11:55:31;52.80;;;10.10;;
54871;SDS011;43914;57.680;11.982;2024-01-30T11:57:58;36.00;;;9.20;;
54871;SDS011;43914;57.680;11.982;2024-01-30T12:00:24;26.20;;;7.60;;
54871;SDS011;43914;57.680;11.982;2024-01-30T12:02:50;24.50;;;8.00;;
54871;SDS011;43914;57.680;11.982;2024-01-30T12:05:21;33.60;;;8.60;;
54871;SDS011;43914;57.680;11.982;2024-01-30T12:07:49;42.20;;;9.20;;
54871;SDS011;43914;57.680;11.982;2024-01-30T12:10:15;22.10;;;7.90;;
54871;SDS011;43914;57.680;11.982;2024-01-30T12:12:41;38.20;;;9.10;;
54871;SDS011;43914;57.680;11.982;2024-01-30T12:15:09;44.80;;;9.70;;
54871;SDS011;43914;57.680;11.982;2024-01-30T12:17:35;45.60;;;8.60;;
54871;SDS011;43914;57.680;11.982;2024-01-30T12:22:50;39.90;;;9.80;;
54871;SDS011;43914;57.680;11.982;2024-01-30T12:25:17;48.50;;;10.60;;
54871;SDS011;43914;57.680;11.982;2024-01-30T12:27:52;50.30;;;8.90;;
54871;SDS011;43914;57.680;11.982;2024-01-30T12:30:18;61.70;;;10.80;;
54871;SDS011;43914;57.680;11.982;2024-01-30T12:32:45;38.30;;;10.80;;
54871;SDS011;43914;57.680;11.982;2024-01-30T12:35:13;58.70;;;11.00;;
54871;SDS011;43914;57.680;11.982;2024-01-30T12:37:40;95.00;;;11.00;;
54871;SDS011;43914;57.680;11.982;2024-01-30T12:40:09;58.00;;;11.40;;
54871;SDS011;43914;57.680;11.982;2024-01-30T12:42:36;83.80;;;11.40;;
54871;SDS011;43914;57.680;11.982;2024-01-30T12:45:02;88.30;;;10.20;;
54871;SDS011;43914;57.680;11.982;2024-01-30T12:47:32;41.50;;;9.70;;
54871;SDS011;43914;57.680;11.982;2024-01-30T12:49:58;38.70;;;9.10;;
54871;SDS011;43914;57.680;11.982;2024-01-30T12:52:23;96.30;;;10.40;;
54871;SDS011;43914;57.680;11.982;2024-01-30T12:54:49;56.80;;;10.70;;
54871;SDS011;43914;57.680;11.982;2024-01-30T12:57:16;74.20;;;11.40;;
54871;SDS011;43914;57.680;11.982;2024-01-30T12:59:42;88.90;;;11.40;;
54871;SDS011;43914;57.680;11.982;2024-01-30T13:02:08;43.30;;;9.90;;
54871;SDS011;43914;57.680;11.982;2024-01-30T13:04:34;90.60;;;11.40;;
54871;SDS011;43914;57.680;11.982;2024-01-30T13:07:00;49.00;;;11.80;;
54871;SDS011;43914;57.680;11.982;2024-01-30T13:09:26;56.00;;;12.40;;
54871;SDS011;43914;57.680;11.982;2024-01-30T13:11:52;29.40;;;11.70;;
54871;SDS011;43914;57.680;11.982;2024-01-30T13:14:18;50.60;;;14.20;;
54871;SDS011;43914;57.680;11.982;2024-01-30T13:16:44;30.10;;;12.40;;
54871;SDS011;43914;57.680;11.982;2024-01-30T13:19:10;42.80;;;14.00;;
54871;SDS011;43914;57.680;11.982;2024-01-30T13:21:36;32.70;;;15.10;;
54871;SDS011;43914;57.680;11.982;2024-01-30T13:24:02;37.90;;;14.40;;
54871;SDS011;43914;57.680;11.982;2024-01-30T13:26:29;32.90;;;14.10;;
54871;SDS011;43914;57.680;11.982;2024-01-30T13:28:56;32.20;;;13.90;;
54871;SDS011;43914;57.680;11.982;2024-01-30T13:31:22;37.20;;;15.30;;
54871;SDS011;43914;57.680;11.982;2024-01-30T13:33:47;32.20;;;14.40;;
54871;SDS011;43914;57.680;11.982;2024-01-30T13:36:14;30.10;;;12.90;;
54871;SDS011;43914;57.680;11.982;2024-01-30T13:38:39;34.20;;;14.90;;
54871;SDS011;43914;57.680;11.982;2024-01-30T13:41:05;31.20;;;14.60;;
54871;SDS011;43914;57.680;11.982;2024-01-30T13:43:31;29.70;;;13.50;;
54871;SDS011;43914;57.680;11.982;2024-01-30T13:45:57;31.00;;;14.30;;
54871;SDS011;43914;57.680;11.982;2024-01-30T13:48:25;30.80;;;14.80;;
54871;SDS011;43914;57.680;11.982;2024-01-30T13:50:51;28.00;;;13.90;;
54871;SDS011;43914;57.680;11.982;2024-01-30T13:53:16;28.60;;;13.90;;
54871;SDS011;43914;57.680;11.982;2024-01-30T13:55:42;29.20;;;13.70;;
54871;SDS011;43914;57.680;11.982;2024-01-30T13:58:08;26.10;;;13.00;;
54871;SDS011;43914;57.680;11.982;2024-01-30T14:00:33;27.30;;;12.90;;
54871;SDS011;43914;57.680;11.982;2024-01-30T14:02:59;26.30;;;12.60;;
54871;SDS011;43914;57.680;11.982;2024-01-30T14:05:26;27.30;;;12.90;;
54871;SDS011;43914;57.680;11.982;2024-01-30T14:07:54;28.10;;;13.30;;
54871;SDS011;43914;57.680;11.982;2024-01-30T14:10:21;27.30;;;12.90;;
54871;SDS011;43914;57.680;11.982;2024-01-30T14:12:46;27.60;;;14.10;;
54871;SDS011;43914;57.680;11.982;2024-01-30T14:15:13;26.50;;;13.10;;
54871;SDS011;43914;57.680;11.982;2024-01-30T14:17:46;25.60;;;13.40;;
54871;SDS011;43914;57.680;11.982;2024-01-30T14:20:14;24.50;;;11.50;;
54871;SDS011;43914;57.680;11.982;2024-01-30T14:22:42;28.40;;;13.30;;
54871;SDS011;43914;57.680;11.982;2024-01-30T14:25:07;29.20;;;13.70;;